Time;durP1;ratioP1;P1;durP2;ratioP2;P2;SDS_P1;SDS_P2;PMS_P1;PMS_P2;Temp;Humidity;BMP_temperature;BMP_pressure;BME280_temperature;BME280_humidity;BME280_pressure;Samples;Min_cycle;Max_cycle;Signal;HPM_P1;HPM_P2
2023/06/08 00:00:41;;;;;;;7.37;7.00;;;20.40;21.30;;;;;;4995891;28;20716;-74
2023/06/08 00:03:07;;;;;;;7.73;7.43;;;20.30;21.20;;;;;;4995022;28;21060;-75
2023/06/08 00:05:43;;;;;;;7.20;6.90;;;20.30;21.40;;;;;;4995623;28;20405;-74
2023/06/08 00:08:09;;;;;;;7.17;6.80;;;20.20;21.30;;;;;;4995533;28;20834;-75
2023/06/08 00:10:34;;;;;;;7.20;6.73;;;20.30;21.30;;;;;;4994187;28;20433;-74
2023/06/08 00:13:00;;;;;;;6.67;6.37;;;20.20;21.30;;;;;;4994805;28;20452;-75
2023/06/08 00:15:27;;;;;;;7.13;6.73;;;20.20;21.30;;;;;;4995370;28;20751;-75
2023/06/08 00:17:52;;;;;;;6.97;6.67;;;20.20;21.30;;;;;;4995415;28;20421;-75
2023/06/08 00:20:18;;;;;;;7.00;6.60;;;20.20;21.20;;;;;;4995317;28;20915;-75
2023/06/08 00:22:47;;;;;;;7.30;6.80;;;20.20;21.50;;;;;;4993987;28;20202;-74
2023/06/08 00:25:15;;;;;;;7.50;7.20;;;20.10;21.80;;;;;;4995444;28;20413;-75
2023/06/08 00:27:41;;;;;;;7.40;7.10;;;20.10;21.80;;;;;;4995369;28;20452;-74
2023/06/08 00:30:07;;;;;;;7.03;6.73;;;20.00;21.70;;;;;;4995602;28;20441;-74
2023/06/08 00:32:32;;;;;;;7.50;7.20;;;20.00;21.70;;;;;;4994846;28;20710;-74
2023/06/08 00:34:58;;;;;;;7.70;7.37;;;20.00;21.70;;;;;;4995076;28;20482;-74
2023/06/08 00:37:23;;;;;;;8.50;8.10;;;20.00;22.00;;;;;;4995482;28;20258;-75
2023/06/08 00:39:49;;;;;;;8.70;8.30;;;20.00;22.00;;;;;;4995865;28;20706;-73
2023/06/08 00:42:15;;;;;;;9.80;9.20;;;20.00;22.00;;;;;;4994589;28;20202;-75
2023/06/08 00:44:40;;;;;;;8.80;8.30;;;20.00;22.30;;;;;;4994926;28;20236;-75
2023/06/08 00:47:07;;;;;;;9.20;8.60;;;20.00;22.30;;;;;;4995107;28;20543;-75
2023/06/08 00:49:33;;;;;;;9.13;8.40;;;20.00;22.40;;;;;;4994401;28;20186;-75
2023/06/08 00:52:00;;;;;;;8.13;7.73;;;20.00;22.60;;;;;;4994837;28;20417;-75
2023/06/08 00:54:30;;;;;;;8.73;8.03;;;20.00;22.50;;;;;;4995352;28;20190;-74
2023/06/08 00:57:00;;;;;;;8.93;8.13;;;20.00;22.30;;;;;;5012062;28;20421;-75
2023/06/08 00:59:31;;;;;;;8.17;7.77;;;19.90;22.40;;;;;;5000166;28;20405;-75
2023/06/08 01:01:57;;;;;;;8.30;7.90;;;19.90;22.50;;;;;;5009557;28;20436;-75
2023/06/08 01:04:23;;;;;;;8.50;8.10;;;19.90;22.60;;;;;;5013210;28;20432;-75
2023/06/08 01:06:53;;;;;;;7.87;7.47;;;19.90;22.60;;;;;;5028043;28;20178;-76
2023/06/08 01:09:45;;;;;;;8.47;7.77;;;19.80;22.80;;;;;;5011276;28;20480;-75
2023/06/08 01:12:27;;;;;;;8.87;8.27;;;19.80;22.80;;;;;;5011755;28;20951;-75
2023/06/08 01:15:12;;;;;;;8.67;8.27;;;19.70;23.30;;;;;;4999623;28;20437;-75
2023/06/08 01:17:44;;;;;;;8.77;8.30;;;19.60;23.60;;;;;;4992952;28;20421;-75
2023/06/08 01:20:29;;;;;;;8.83;8.43;;;19.40;23.90;;;;;;4993992;28;20436;-75
2023/06/08 01:23:07;;;;;;;8.80;8.30;;;19.20;24.30;;;;;;4993178;28;20922;-75
2023/06/08 01:25:37;;;;;;;9.10;8.70;;;19.10;24.80;;;;;;4994601;28;20416;-75
2023/06/08 01:28:12;;;;;;;8.83;8.43;;;19.00;24.90;;;;;;4994094;28;20703;-75
2023/06/08 01:30:46;;;;;;;9.77;9.17;;;19.10;24.70;;;;;;4994043;28;20507;-75
2023/06/08 01:33:24;;;;;;;9.80;9.30;;;19.20;24.60;;;;;;4993207;28;20567;-75
2023/06/08 01:36:06;;;;;;;9.93;9.33;;;19.30;24.40;;;;;;4993895;28;20417;-74
2023/06/08 01:39:19;;;;;;;9.80;9.30;;;19.30;24.40;;;;;;4993770;28;20417;-75
2023/06/08 01:41:48;;;;;;;9.70;9.10;;;19.30;24.20;;;;;;4971244;28;20421;-75
2023/06/08 01:44:16;;;;;;;9.53;9.13;;;19.40;24.30;;;;;;4988231;28;20500;-74
2023/06/08 01:46:50;;;;;;;10.03;9.43;;;19.40;24.30;;;;;;4993713;28;20425;-74
2023/06/08 01:49:16;;;;;;;9.50;9.00;;;19.40;24.20;;;;;;4993475;28;20421;-75
2023/06/08 01:51:42;;;;;;;9.60;9.10;;;19.40;24.20;;;;;;4992264;28;20421;-75
2023/06/08 01:54:08;;;;;;;10.00;9.50;;;19.40;24.30;;;;;;4993275;28;20525;-74
2023/06/08 01:56:35;;;;;;;9.80;9.30;;;19.40;24.20;;;;;;4993327;28;20979;-74
2023/06/08 01:59:01;;;;;;;9.80;9.20;;;19.50;24.20;;;;;;4993379;28;20182;-75
2023/06/08 02:01:27;;;;;;;9.90;9.20;;;19.40;24.10;;;;;;4992637;28;20420;-75
2023/06/08 02:03:53;;;;;;;10.37;9.57;;;19.40;24.20;;;;;;4993150;28;20473;-75
2023/06/08 02:06:18;;;;;;;9.53;9.03;;;19.30;24.60;;;;;;4993321;28;20432;-75
2023/06/08 02:08:45;;;;;;;9.83;9.23;;;19.10;24.90;;;;;;4991943;28;20193;-75
2023/06/08 02:11:11;;;;;;;9.80;9.10;;;18.90;25.40;;;;;;4992536;28;20695;-75
2023/06/08 02:13:41;;;;;;;10.30;9.70;;;18.80;25.60;;;;;;5007947;28;20550;-75
2023/06/08 02:16:07;;;;;;;10.10;9.60;;;18.90;25.60;;;;;;4993049;28;20181;-75
2023/06/08 02:18:35;;;;;;;9.50;9.00;;;19.00;25.40;;;;;;4992872;28;20789;-75
2023/06/08 02:21:02;;;;;;;9.83;9.33;;;19.00;25.20;;;;;;4993149;28;20539;-75
2023/06/08 02:23:28;;;;;;;9.57;9.03;;;19.10;25.20;;;;;;4992513;28;20469;-74
2023/06/08 02:25:53;;;;;;;10.07;9.37;;;19.10;25.00;;;;;;4992595;28;20405;-75
2023/06/08 02:28:20;;;;;;;9.43;8.93;;;19.20;24.80;;;;;;4993381;28;20757;-74
2023/06/08 02:30:46;;;;;;;10.50;9.80;;;19.20;24.70;;;;;;4995199;28;20174;-75
2023/06/08 02:33:14;;;;;;;10.47;9.87;;;19.20;24.60;;;;;;4994699;28;20433;-75
2023/06/08 02:35:39;;;;;;;9.87;9.27;;;19.30;24.60;;;;;;4991572;28;20422;-75
2023/06/08 02:38:05;;;;;;;9.60;9.10;;;19.30;24.70;;;;;;4992950;28;20977;-75
2023/06/08 02:40:31;;;;;;;10.23;9.53;;;19.20;24.70;;;;;;4993048;28;20189;-75
2023/06/08 02:42:56;;;;;;;10.00;9.50;;;19.30;24.50;;;;;;4992029;28;20292;-74
2023/06/08 02:45:22;;;;;;;9.83;9.43;;;19.20;24.70;;;;;;4992776;28;20181;-75
2023/06/08 02:47:48;;;;;;;10.53;10.03;;;19.30;24.40;;;;;;4992843;28;20174;-74
2023/06/08 02:50:13;;;;;;;10.47;9.83;;;19.30;24.40;;;;;;5007050;28;20178;-75
2023/06/08 02:52:39;;;;;;;10.33;9.70;;;19.20;24.30;;;;;;4992095;28;20174;-75
2023/06/08 02:55:05;;;;;;;11.00;10.33;;;19.20;24.40;;;;;;4992032;28;20229;-75
2023/06/08 02:57:32;;;;;;;11.03;10.13;;;19.30;24.40;;;;;;4992579;28;20421;-75
2023/06/08 02:59:58;;;;;;;9.77;9.17;;;19.20;24.40;;;;;;4992893;28;20432;-75
2023/06/08 03:02:24;;;;;;;10.17;9.37;;;19.20;24.50;;;;;;4991975;28;20465;-75
2023/06/08 03:04:52;;;;;;;9.10;8.60;;;19.20;24.50;;;;;;4992491;28;20711;-75
2023/06/08 03:07:18;;;;;;;10.80;9.83;;;19.20;24.60;;;;;;4992364;28;20423;-75
2023/06/08 03:09:43;;;;;;;9.30;8.80;;;19.20;24.60;;;;;;4992602;28;20413;-75
2023/06/08 03:12:12;;;;;;;9.87;9.37;;;19.20;24.70;;;;;;4991878;28;20490;-75
2023/06/08 03:14:38;;;;;;;10.93;10.20;;;19.20;24.70;;;;;;4992274;28;20198;-75
2023/06/08 03:17:04;;;;;;;10.77;10.27;;;19.10;24.60;;;;;;4992470;28;20424;-75
2023/06/08 03:19:30;;;;;;;11.40;10.70;;;19.10;24.70;;;;;;4992293;28;20414;-75
2023/06/08 03:22:02;;;;;;;10.60;9.90;;;19.10;24.70;;;;;;4991731;28;20202;-75
2023/06/08 03:24:31;;;;;;;10.30;9.80;;;19.10;24.70;;;;;;4992199;28;20853;-75
2023/06/08 03:26:58;;;;;;;10.93;10.23;;;19.10;24.90;;;;;;4992580;28;20409;-75
2023/06/08 03:29:24;;;;;;;10.30;9.70;;;19.10;24.90;;;;;;4992326;28;20799;-75
2023/06/08 03:31:50;;;;;;;10.63;10.03;;;19.10;24.80;;;;;;4991606;28;20401;-75
2023/06/08 03:34:16;;;;;;;10.33;9.83;;;19.00;25.00;;;;;;4992262;28;20377;-75
2023/06/08 03:36:43;;;;;;;10.70;10.10;;;19.00;25.00;;;;;;4992543;28;20179;-75
2023/06/08 03:39:09;;;;;;;10.80;10.20;;;19.00;25.00;;;;;;4992279;28;20417;-75
2023/06/08 03:41:34;;;;;;;10.03;9.43;;;18.90;25.20;;;;;;4991692;28;20413;-75
2023/06/08 03:44:01;;;;;;;10.57;9.83;;;18.90;25.40;;;;;;4992409;28;20289;-75
2023/06/08 03:46:27;;;;;;;10.40;9.80;;;18.90;25.40;;;;;;4994257;28;20220;-75
2023/06/08 03:48:52;;;;;;;11.00;10.40;;;18.90;25.50;;;;;;4996302;28;20417;-75
2023/06/08 03:51:21;;;;;;;10.60;10.00;;;18.80;25.60;;;;;;4995128;28;20753;-75
2023/06/08 03:53:47;;;;;;;10.50;10.00;;;18.80;25.80;;;;;;4995807;28;20194;-74
2023/06/08 03:56:13;;;;;;;10.30;9.80;;;18.80;26.50;;;;;;4995586;28;20413;-75
2023/06/08 03:58:38;;;;;;;11.10;10.50;;;18.80;25.80;;;;;;4995664;28;20783;-75
2023/06/08 04:01:04;;;;;;;11.60;10.90;;;18.80;25.80;;;;;;4995338;28;20178;-75
2023/06/08 04:03:30;;;;;;;10.40;9.60;;;18.80;25.90;;;;;;4993831;28;20212;-75
2023/06/08 04:05:56;;;;;;;10.63;9.77;;;18.80;25.80;;;;;;4995046;28;20453;-74
2023/06/08 04:08:22;;;;;;;10.70;10.10;;;18.80;25.90;;;;;;4995289;28;20224;-75
2023/06/08 04:10:48;;;;;;;9.57;9.00;;;18.80;26.00;;;;;;4995393;28;20916;-75
2023/06/08 04:13:14;;;;;;;9.47;8.87;;;18.80;25.90;;;;;;4993118;28;20482;-75
2023/06/08 04:15:39;;;;;;;9.53;9.03;;;18.80;25.80;;;;;;4995320;28;20268;-75
2023/06/08 04:18:05;;;;;;;10.90;10.10;;;18.80;25.80;;;;;;4995309;28;20170;-74
2023/06/08 04:20:32;;;;;;;9.83;9.33;;;18.80;25.70;;;;;;4994600;28;20182;-75
2023/06/08 04:22:58;;;;;;;9.93;9.10;;;18.80;26.00;;;;;;4993139;28;20209;-74
2023/06/08 04:25:25;;;;;;;9.80;9.37;;;18.80;25.90;;;;;;4994989;28;20512;-76
2023/06/08 04:27:52;;;;;;;10.13;9.57;;;18.80;25.80;;;;;;4994980;28;20178;-75
2023/06/08 04:30:17;;;;;;;9.83;9.33;;;18.80;25.90;;;;;;4994932;28;20405;-75
2023/06/08 04:32:43;;;;;;;10.57;9.67;;;18.80;25.80;;;;;;4994282;28;20471;-74
2023/06/08 04:35:09;;;;;;;9.63;8.97;;;18.80;25.90;;;;;;4994893;28;20236;-74
2023/06/08 04:37:35;;;;;;;10.83;10.03;;;18.80;25.90;;;;;;4994283;28;20606;-75
2023/06/08 04:40:01;;;;;;;9.50;9.00;;;18.80;25.90;;;;;;4994950;28;20174;-74
2023/06/08 04:42:27;;;;;;;10.33;9.60;;;18.50;27.00;;;;;;4994277;28;20457;-74
2023/06/08 04:44:53;;;;;;;10.33;9.73;;;18.30;27.60;;;;;;4994800;28;20429;-74
2023/06/08 04:47:19;;;;;;;9.30;8.80;;;18.20;27.70;;;;;;4994701;28;20170;-75
2023/06/08 04:49:44;;;;;;;10.97;10.43;;;18.20;27.80;;;;;;4994662;28;20413;-75
2023/06/08 04:52:13;;;;;;;10.50;9.90;;;18.40;27.60;;;;;;4993960;28;20543;-74
2023/06/08 04:54:39;;;;;;;10.07;9.50;;;18.40;27.00;;;;;;4994696;28;20675;-74
2023/06/08 04:57:08;;;;;;;11.17;10.53;;;18.50;26.80;;;;;;4992898;28;20453;-74
2023/06/08 04:59:35;;;;;;;10.60;10.00;;;18.50;26.90;;;;;;4994902;28;20555;-74
2023/06/08 05:02:01;;;;;;;10.10;9.30;;;18.60;26.90;;;;;;5008724;28;20836;-75
2023/06/08 05:04:27;;;;;;;11.47;10.80;;;18.70;26.90;;;;;;4992655;28;20503;-74
2023/06/08 05:06:52;;;;;;;11.57;10.80;;;18.80;26.60;;;;;;4993450;28;20212;-74
2023/06/08 05:09:18;;;;;;;11.60;10.83;;;18.80;26.50;;;;;;4994393;28;20659;-74
2023/06/08 05:11:43;;;;;;;10.50;10.00;;;18.90;26.50;;;;;;4994036;28;20196;-73
2023/06/08 05:14:10;;;;;;;11.27;10.67;;;18.90;26.30;;;;;;4994687;28;20190;-74
2023/06/08 05:16:37;;;;;;;11.30;10.60;;;18.90;25.90;;;;;;4987565;22;20247;-74
2023/06/08 05:19:03;;;;;;;10.70;10.10;;;18.80;26.20;;;;;;4946825;28;20760;-74
2023/06/08 05:21:29;;;;;;;9.90;9.30;;;18.80;27.10;;;;;;4936925;28;20676;-74
2023/06/08 05:23:55;;;;;;;9.87;9.37;;;18.90;26.40;;;;;;4936055;28;20640;-75
2023/06/08 05:26:23;;;;;;;11.63;11.03;;;19.00;26.30;;;;;;4935084;29;20307;-75
2023/06/08 05:28:49;;;;;;;10.17;9.57;;;18.90;25.80;;;;;;4935540;29;20181;-74
2023/06/08 05:31:14;;;;;;;9.90;9.33;;;18.90;26.10;;;;;;4934912;29;20952;-74
2023/06/08 05:33:40;;;;;;;9.97;9.47;;;18.90;26.20;;;;;;4947538;29;20265;-73
2023/06/08 05:36:06;;;;;;;10.50;10.00;;;18.90;26.20;;;;;;4954854;28;20289;-75
2023/06/08 05:38:32;;;;;;;10.70;10.10;;;18.90;26.20;;;;;;4955755;28;20199;-74
2023/06/08 05:40:58;;;;;;;10.67;9.77;;;19.00;26.10;;;;;;4955162;28;20443;-75
2023/06/08 05:43:23;;;;;;;10.90;10.30;;;19.00;25.90;;;;;;4954161;28;20303;-74
2023/06/08 05:45:55;;;;;;;10.10;9.50;;;19.00;26.10;;;;;;5032914;22;20230;-43
2023/06/08 05:48:23;;;;;;;11.50;10.27;;;19.10;26.00;;;;;;4988933;28;20209;-40
2023/06/08 05:50:49;;;;;;;10.90;10.30;;;19.10;25.90;;;;;;4981343;28;20418;-42
2023/06/08 05:53:14;;;;;;;10.60;10.00;;;19.20;25.80;;;;;;4990385;28;20466;-41
2023/06/08 05:55:41;;;;;;;12.13;11.40;;;19.10;25.60;;;;;;4990150;28;20293;-41
2023/06/08 05:58:11;;;;;;;10.27;9.67;;;19.10;26.10;;;;;;4991094;28;20599;-41
2023/06/08 06:00:37;;;;;;;11.20;10.10;;;19.20;25.70;;;;;;4983948;28;20488;-43
2023/06/08 06:03:03;;;;;;;10.63;10.00;;;19.30;25.40;;;;;;4970634;28;20473;-48
2023/06/08 06:05:29;;;;;;;10.37;9.77;;;19.30;25.20;;;;;;4978716;28;20544;-47
2023/06/08 06:07:55;;;;;;;9.97;9.43;;;19.40;25.20;;;;;;4990342;28;20578;-50
2023/06/08 06:10:21;;;;;;;10.20;9.70;;;19.40;25.10;;;;;;4988971;28;20432;-49
2023/06/08 06:12:46;;;;;;;10.20;9.50;;;19.50;24.70;;;;;;5004955;28;20569;-45
2023/06/08 06:15:12;;;;;;;9.60;9.10;;;19.50;24.60;;;;;;4989409;28;20541;-47
2023/06/08 06:17:38;;;;;;;9.90;9.30;;;19.60;24.40;;;;;;4990455;28;20248;-49
2023/06/08 06:20:05;;;;;;;10.07;9.17;;;19.60;24.20;;;;;;4990742;28;20417;-49
2023/06/08 06:22:31;;;;;;;11.57;10.97;;;19.60;24.10;;;;;;4989806;28;20727;-51
2023/06/08 06:24:56;;;;;;;10.70;10.00;;;19.70;24.30;;;;;;4990574;28;20505;-47
2023/06/08 06:27:22;;;;;;;10.47;9.87;;;19.80;23.80;;;;;;4990100;28;20182;-49
2023/06/08 06:29:48;;;;;;;9.97;9.27;;;19.80;23.60;;;;;;4990697;28;20580;-48
2023/06/08 06:32:14;;;;;;;9.93;9.43;;;19.80;23.70;;;;;;4989743;28;20200;-48
2023/06/08 06:34:41;;;;;;;9.77;9.27;;;19.80;23.80;;;;;;4991514;28;20197;-49
2023/06/08 06:37:07;;;;;;;9.77;9.27;;;19.80;23.90;;;;;;4990368;28;20526;-47
2023/06/08 06:42:10;;;;;;;10.30;9.60;;;19.90;23.50;;;;;;4822066;26;20225;-59
2023/06/08 06:44:36;;;;;;;10.37;9.77;;;20.00;23.10;;;;;;4970418;28;20465;-61
2023/06/08 06:47:02;;;;;;;11.17;10.43;;;20.10;23.00;;;;;;4979185;28;20218;-60
2023/06/08 06:49:27;;;;;;;9.47;8.97;;;20.10;23.00;;;;;;4985701;28;20182;-58
2023/06/08 06:51:53;;;;;;;10.47;9.67;;;20.10;23.20;;;;;;4988039;28;20189;-60
2023/06/08 06:54:18;;;;;;;10.47;9.77;;;20.20;23.10;;;;;;4988791;28;20185;-61
2023/06/08 06:56:44;;;;;;;9.63;9.03;;;20.20;23.10;;;;;;4989083;28;20177;-60
2023/06/08 06:59:10;;;;;;;9.23;8.70;;;20.30;23.00;;;;;;4990436;28;20178;-60
2023/06/08 07:01:36;;;;;;;10.07;9.23;;;20.40;23.20;;;;;;4990010;28;20216;-59
2023/06/08 07:04:05;;;;;;;9.50;8.90;;;20.40;23.00;;;;;;4990212;28;20678;-59
2023/06/08 07:06:31;;;;;;;9.60;9.10;;;20.40;22.40;;;;;;4990654;28;20420;-59
2023/06/08 07:08:57;;;;;;;10.37;9.77;;;20.40;22.40;;;;;;4991000;28;20917;-59
2023/06/08 07:11:23;;;;;;;9.23;8.83;;;20.50;22.00;;;;;;4990824;28;20192;-59
2023/06/08 07:13:48;;;;;;;9.73;9.13;;;20.50;22.00;;;;;;4991476;28;20182;-59
2023/06/08 07:16:14;;;;;;;9.20;8.70;;;20.60;21.90;;;;;;4991667;28;20201;-57
2023/06/08 07:18:40;;;;;;;9.40;8.80;;;20.60;22.10;;;;;;4992950;28;20633;-59
2023/06/08 07:21:06;;;;;;;10.53;9.70;;;20.60;22.10;;;;;;4994091;28;20178;-59
2023/06/08 07:23:32;;;;;;;9.53;9.03;;;20.70;21.30;;;;;;4995108;28;20579;-52
2023/06/08 07:25:57;;;;;;;10.03;9.40;;;20.80;21.20;;;;;;4995005;28;20508;-50
2023/06/08 07:28:23;;;;;;;9.30;8.80;;;20.90;21.50;;;;;;4994910;28;20178;-51
2023/06/08 07:30:49;;;;;;;9.00;8.40;;;20.90;21.50;;;;;;4994922;28;20189;-54
2023/06/08 07:33:15;;;;;;;8.90;8.30;;;20.90;21.30;;;;;;4994231;28;20181;-49
2023/06/08 07:35:40;;;;;;;9.43;8.93;;;20.90;20.90;;;;;;4994878;28;20186;-59
2023/06/08 07:38:06;;;;;;;9.30;8.70;;;20.90;21.10;;;;;;4994614;28;20753;-59
2023/06/08 07:40:32;;;;;;;8.87;8.37;;;21.00;21.10;;;;;;4994503;28;20256;-59
2023/06/08 07:42:58;;;;;;;9.70;9.10;;;21.10;21.50;;;;;;4993950;28;21022;-60
2023/06/08 07:45:23;;;;;;;10.17;9.47;;;21.20;21.30;;;;;;4994486;28;20680;-59
2023/06/08 07:47:49;;;;;;;9.67;9.17;;;21.20;21.50;;;;;;4994581;28;20260;-57
2023/06/08 07:50:15;;;;;;;10.17;9.53;;;21.20;21.80;;;;;;4994429;28;20182;-60
2023/06/08 07:52:41;;;;;;;9.87;9.17;;;21.30;21.60;;;;;;4993909;28;20225;-58
2023/06/08 07:55:07;;;;;;;10.10;9.50;;;21.40;21.30;;;;;;4994467;28;20452;-59
2023/06/08 07:57:36;;;;;;;10.07;9.37;;;21.50;20.90;;;;;;4994364;28;20617;-59
2023/06/08 08:00:03;;;;;;;8.27;7.80;;;21.50;21.00;;;;;;4994267;28;20528;-59
2023/06/08 08:02:28;;;;;;;9.03;8.43;;;21.60;20.70;;;;;;4993685;28;20543;-60
2023/06/08 08:04:54;;;;;;;8.63;8.13;;;21.60;20.40;;;;;;4984887;28;20542;-53
2023/06/08 08:07:20;;;;;;;9.33;8.77;;;21.70;20.20;;;;;;4993270;28;20752;-56
2023/06/08 08:09:45;;;;;;;9.23;8.53;;;21.70;21.20;;;;;;4992659;28;20276;-54
2023/06/08 08:12:11;;;;;;;9.33;8.70;;;21.80;21.30;;;;;;4993720;28;20261;-52
2023/06/08 08:14:37;;;;;;;10.43;9.70;;;21.80;21.20;;;;;;4993461;28;20226;-57
2023/06/08 08:17:04;;;;;;;11.00;10.00;;;21.90;21.80;;;;;;4992726;28;20193;-54
2023/06/08 08:19:30;;;;;;;10.30;9.70;;;21.90;22.20;;;;;;4992843;28;20425;-53
2023/06/08 08:21:55;;;;;;;10.67;9.97;;;21.90;22.20;;;;;;4992547;28;20404;-56
2023/06/08 08:24:21;;;;;;;11.00;9.97;;;21.90;22.10;;;;;;4992851;28;20487;-55
2023/06/08 08:26:47;;;;;;;11.67;11.07;;;21.90;22.30;;;;;;4992934;28;20182;-53
2023/06/08 08:29:12;;;;;;;9.37;8.77;;;21.90;22.10;;;;;;4992742;28;20190;-53
2023/06/08 08:31:38;;;;;;;9.30;8.70;;;21.90;22.80;;;;;;4991099;28;20285;-58
2023/06/08 08:34:04;;;;;;;10.37;9.77;;;21.90;22.60;;;;;;4992734;28;20249;-53
2023/06/08 08:36:30;;;;;;;9.80;9.30;;;22.00;22.20;;;;;;4992666;28;20475;-55
2023/06/08 08:38:56;;;;;;;9.90;9.30;;;22.00;22.20;;;;;;4992493;28;20804;-55
2023/06/08 08:41:26;;;;;;;10.97;10.37;;;22.00;21.40;;;;;;4991597;28;20449;-55
2023/06/08 08:43:55;;;;;;;10.20;9.70;;;22.10;21.40;;;;;;4992591;28;20210;-54
2023/06/08 08:46:22;;;;;;;10.40;9.70;;;22.10;21.40;;;;;;4992705;28;20421;-54
2023/06/08 08:48:50;;;;;;;12.00;11.30;;;22.10;21.00;;;;;;4992396;28;20417;-55
2023/06/08 08:51:19;;;;;;;9.77;8.97;;;22.10;20.70;;;;;;4991756;28;20417;-55
2023/06/08 08:53:55;;;;;;;11.70;10.80;;;22.10;20.90;;;;;;4992031;28;20792;-56
2023/06/08 08:56:22;;;;;;;11.90;11.10;;;22.20;19.50;;;;;;4992098;28;20947;-54
2023/06/08 08:58:51;;;;;;;10.00;9.50;;;22.20;19.10;;;;;;4992327;28;20425;-53
2023/06/08 09:01:20;;;;;;;9.57;9.10;;;22.20;18.50;;;;;;4991334;28;20782;-55
2023/06/08 09:03:46;;;;;;;10.50;9.97;;;22.20;17.90;;;;;;4992191;28;20460;-56
2023/06/08 09:06:12;;;;;;;11.37;10.70;;;22.30;18.10;;;;;;4991927;28;20468;-54
2023/06/08 09:08:39;;;;;;;10.60;9.93;;;22.30;19.00;;;;;;4991999;28;20457;-54
2023/06/08 09:11:06;;;;;;;10.40;9.83;;;22.30;19.50;;;;;;4991750;28;20554;-54
2023/06/08 09:13:33;;;;;;;10.37;9.70;;;22.40;19.70;;;;;;4991669;28;20512;-54
2023/06/08 09:16:17;;;;;;;9.60;9.00;;;22.40;19.00;;;;;;4991891;28;20475;-53
2023/06/08 09:18:46;;;;;;;9.50;8.97;;;22.50;17.70;;;;;;4991993;28;20501;-52
2023/06/08 09:21:23;;;;;;;9.97;9.43;;;22.50;16.30;;;;;;4991390;28;20512;-56
2023/06/08 09:24:06;;;;;;;9.10;8.57;;;22.70;16.10;;;;;;4991674;28;20518;-56
2023/06/08 09:26:32;;;;;;;10.03;9.43;;;23.10;15.80;;;;;;4991903;28;20995;-57
2023/06/08 09:29:03;;;;;;;9.27;8.70;;;23.30;15.30;;;;;;4991237;28;20787;-53
2023/06/08 09:31:31;;;;;;;10.10;8.87;;;23.40;15.40;;;;;;4991347;28;20429;-55
2023/06/08 09:34:10;;;;;;;9.63;9.03;;;23.40;15.40;;;;;;4991661;28;20417;-55
2023/06/08 09:36:38;;;;;;;12.20;11.30;;;23.40;15.40;;;;;;4991589;28;20499;-54
2023/06/08 09:39:05;;;;;;;10.13;9.53;;;23.30;15.30;;;;;;4991645;28;20449;-56
2023/06/08 09:41:32;;;;;;;10.03;9.27;;;23.30;15.30;;;;;;4990902;28;21015;-54
2023/06/08 09:43:58;;;;;;;8.70;8.30;;;23.40;15.20;;;;;;4991072;28;20976;-51
2023/06/08 09:46:45;;;;;;;8.23;7.83;;;23.30;14.60;;;;;;4991436;28;20910;-54
2023/06/08 09:49:15;;;;;;;8.87;8.47;;;23.40;14.30;;;;;;4991197;28;20459;-55
2023/06/08 09:51:49;;;;;;;9.20;8.70;;;23.50;13.40;;;;;;4991091;28;20901;-55
2023/06/08 09:54:16;;;;;;;9.33;8.43;;;23.60;13.90;;;;;;4991133;28;20820;-55
2023/06/08 09:56:47;;;;;;;9.30;8.80;;;23.80;14.10;;;;;;4990930;28;20448;-55
2023/06/08 09:59:15;;;;;;;9.80;9.30;;;23.90;13.50;;;;;;4982359;28;20430;-54
2023/06/08 10:01:54;;;;;;;9.90;9.20;;;24.10;12.70;;;;;;4990153;28;20449;-54
2023/06/08 10:04:28;;;;;;;10.00;9.40;;;24.30;12.40;;;;;;4990795;28;20587;-55
2023/06/08 10:07:07;;;;;;;9.60;9.10;;;24.50;11.70;;;;;;4992692;28;20471;-55
2023/06/08 10:09:36;;;;;;;9.67;9.10;;;24.90;11.40;;;;;;4991255;28;20409;-53
2023/06/08 10:12:03;;;;;;;10.80;10.20;;;25.20;11.20;;;;;;4990567;28;20968;-54
2023/06/08 10:14:29;;;;;;;10.17;9.67;;;25.40;11.40;;;;;;4990688;28;20421;-56
2023/06/08 10:16:56;;;;;;;10.17;9.50;;;25.40;11.40;;;;;;4991038;28;20435;-55
2023/06/08 10:19:23;;;;;;;10.33;9.73;;;25.50;11.20;;;;;;4990554;28;20425;-55
2023/06/08 10:21:51;;;;;;;8.93;8.53;;;25.60;10.40;;;;;;4989009;28;20437;-59
2023/06/08 10:24:20;;;;;;;9.57;9.07;;;25.60;10.40;;;;;;4990639;28;20468;-56
2023/06/08 10:26:48;;;;;;;9.80;9.23;;;25.70;9.10;;;;;;4990634;28;20508;-54
2023/06/08 10:29:14;;;;;;;10.60;9.90;;;25.70;9.10;;;;;;4990616;28;20444;-54
2023/06/08 10:31:41;;;;;;;10.43;9.83;;;25.70;9.80;;;;;;4989364;28;20409;-56
2023/06/08 10:34:14;;;;;;;11.27;10.77;;;25.90;10.30;;;;;;4990204;28;20196;-54
2023/06/08 10:36:42;;;;;;;9.87;9.27;;;25.90;10.20;;;;;;4990418;28;20512;-55
2023/06/08 10:39:14;;;;;;;10.10;9.40;;;26.00;10.30;;;;;;4990647;28;20428;-55
2023/06/08 10:41:41;;;;;;;10.23;9.63;;;26.00;9.70;;;;;;4990031;28;20952;-59
2023/06/08 10:44:24;;;;;;;9.97;9.47;;;26.00;8.40;;;;;;4990446;28;20461;-59
2023/06/08 10:46:56;;;;;;;9.60;9.10;;;25.90;7.30;;;;;;4990630;28;20428;-52
2023/06/08 10:49:22;;;;;;;9.47;8.87;;;26.00;8.10;;;;;;4989649;28;20426;-55
2023/06/08 10:51:54;;;;;;;10.27;9.67;;;26.10;7.90;;;;;;4989988;28;20532;-56
2023/06/08 10:54:24;;;;;;;10.50;10.00;;;26.00;8.10;;;;;;4990623;28;20604;-54
2023/06/08 10:56:54;;;;;;;10.93;10.37;;;25.90;8.00;;;;;;4993433;28;20444;-54
2023/06/08 10:59:37;;;;;;;10.93;10.10;;;25.80;8.80;;;;;;4994396;28;20421;-54
2023/06/08 11:02:05;;;;;;;10.90;9.90;;;25.80;8.70;;;;;;4993074;28;20861;-55
2023/06/08 11:04:33;;;;;;;9.63;9.13;;;25.90;8.10;;;;;;4993094;28;20425;-54
2023/06/08 11:07:06;;;;;;;10.60;10.00;;;25.90;8.30;;;;;;4994378;28;20405;-56
2023/06/08 11:09:36;;;;;;;10.90;10.00;;;26.10;8.10;;;;;;4993695;28;20421;-55
2023/06/08 11:12:04;;;;;;;11.60;10.90;;;26.20;7.90;;;;;;4992974;28;20413;-52
2023/06/08 11:14:29;;;;;;;10.00;9.30;;;26.20;7.80;;;;;;4992296;28;20429;-55
2023/06/08 11:16:56;;;;;;;11.20;10.60;;;26.20;8.20;;;;;;5009656;28;20438;-55
2023/06/08 11:19:27;;;;;;;11.50;10.90;;;26.20;9.20;;;;;;4978899;28;20205;-55
2023/06/08 11:21:53;;;;;;;11.40;10.57;;;26.10;9.30;;;;;;4993068;28;20455;-55
2023/06/08 11:24:25;;;;;;;9.70;9.00;;;26.00;8.20;;;;;;4993139;28;21115;-55
2023/06/08 11:26:55;;;;;;;10.50;9.43;;;26.20;6.90;;;;;;4993324;28;20420;-59
2023/06/08 11:29:21;;;;;;;9.73;9.23;;;26.20;6.80;;;;;;4993295;28;20421;-60
2023/06/08 11:31:47;;;;;;;10.27;9.67;;;26.30;6.70;;;;;;4992650;28;20431;-60
2023/06/08 11:34:13;;;;;;;10.83;10.23;;;26.30;6.90;;;;;;4993149;28;20182;-59
2023/06/08 11:36:40;;;;;;;11.00;10.40;;;26.30;7.10;;;;;;4993081;28;20236;-59
2023/06/08 11:39:10;;;;;;;11.03;10.40;;;26.40;6.90;;;;;;4993795;28;20862;-59
2023/06/08 11:41:36;;;;;;;12.13;11.40;;;26.30;7.10;;;;;;4993985;28;20449;-52
2023/06/08 11:44:01;;;;;;;10.93;10.33;;;26.30;7.10;;;;;;4994516;28;20468;-52
2023/06/08 11:46:28;;;;;;;11.90;11.20;;;26.50;6.90;;;;;;4994587;28;20276;-54
2023/06/08 11:49:05;;;;;;;10.53;9.93;;;26.60;6.40;;;;;;4994524;28;20264;-53
2023/06/08 11:51:31;;;;;;;11.50;10.70;;;26.70;6.50;;;;;;4993990;28;20435;-52
2023/06/08 11:53:57;;;;;;;10.63;9.93;;;26.70;5.70;;;;;;4994503;28;20433;-52
2023/06/08 11:56:22;;;;;;;11.63;10.83;;;26.60;6.10;;;;;;4994324;28;20566;-54
2023/06/08 11:58:48;;;;;;;11.27;10.67;;;26.50;6.30;;;;;;4994376;28;20189;-50
2023/06/08 12:01:14;;;;;;;10.20;9.50;;;26.60;5.50;;;;;;4993605;28;20178;-53
2023/06/08 12:03:47;;;;;;;9.67;9.17;;;26.80;5.90;;;;;;4994225;28;20687;-53
2023/06/08 12:06:14;;;;;;;10.30;9.70;;;26.60;5.60;;;;;;4994139;28;20174;-50
2023/06/08 12:08:41;;;;;;;11.33;10.43;;;26.50;5.70;;;;;;4994120;28;20555;-55
2023/06/08 12:11:11;;;;;;;11.10;10.30;;;26.50;5.70;;;;;;4993886;28;20417;-52
2023/06/08 12:13:41;;;;;;;10.40;9.80;;;26.30;6.30;;;;;;4994106;28;20421;-50
2023/06/08 12:16:08;;;;;;;9.83;9.33;;;26.20;6.30;;;;;;4994020;28;20770;-52
2023/06/08 12:18:42;;;;;;;10.30;9.70;;;26.10;6.00;;;;;;4993906;28;20465;-50
2023/06/08 12:21:09;;;;;;;9.83;9.23;;;26.00;6.50;;;;;;4993590;28;20463;-59
2023/06/08 12:23:35;;;;;;;11.03;10.43;;;25.90;6.70;;;;;;4993664;28;20559;-60
2023/06/08 12:26:01;;;;;;;10.80;10.10;;;26.00;7.00;;;;;;4993944;28;20413;-53
2023/06/08 12:28:27;;;;;;;10.73;10.13;;;25.90;7.00;;;;;;4993789;28;20645;-55
2023/06/08 12:30:54;;;;;;;10.27;9.47;;;25.80;6.90;;;;;;4993712;28;20943;-55
2023/06/08 12:33:21;;;;;;;9.60;9.03;;;25.80;6.60;;;;;;4993469;28;20185;-54
2023/06/08 12:35:50;;;;;;;10.00;9.40;;;25.70;6.60;;;;;;4993693;28;20421;-50
2023/06/08 12:38:17;;;;;;;10.43;9.63;;;25.70;7.90;;;;;;4994302;28;20436;-53
2023/06/08 12:40:50;;;;;;;9.10;8.60;;;25.50;9.10;;;;;;4993637;28;20441;-55
2023/06/08 12:43:18;;;;;;;7.97;7.47;;;25.40;9.60;;;;;;4993328;28;20878;-54
2023/06/08 12:45:44;;;;;;;8.50;7.73;;;25.20;8.80;;;;;;4993277;28;20418;-53